Time;durP1;ratioP1;P1;durP2;ratioP2;P2;SDS_P1;SDS_P2;PMS_P1;PMS_P2;Temp;Humidity;BMP_temperature;BMP_pressure;BME280_temperature;BME280_humidity;BME280_pressure;Samples;Min_cycle;Max_cycle;Signal;HPM_P1;HPM_P2
2023/04/11 00:02:19;;;;;;;2.50;2.30;;;;;;;14.11;45.18;98386.25;5092829;28;40676;-77
2023/04/11 00:04:47;;;;;;;2.57;2.37;;;;;;;14.08;45.08;98395.38;5093617;28;42835;-76
2023/04/11 00:07:16;;;;;;;2.87;2.67;;;;;;;14.01;45.65;98400.34;5093160;28;42523;-77
2023/04/11 00:09:44;;;;;;;3.27;2.93;;;;;;;13.98;45.72;98405.91;5094898;28;40030;-77
2023/04/11 00:12:11;;;;;;;2.70;2.50;;;;;;;13.98;45.49;98407.75;5093193;28;41658;-78
2023/04/11 00:14:44;;;;;;;3.57;2.47;;;;;;;14.00;46.72;98395.16;5076077;28;43208;-77
2023/04/11 00:17:12;;;;;;;3.13;2.83;;;;;;;13.97;46.31;98401.56;5092964;28;42131;-76
2023/04/11 00:19:42;;;;;;;2.67;2.47;;;;;;;13.91;46.51;98391.44;5076395;28;38353;-77
2023/04/11 00:22:10;;;;;;;3.10;2.80;;;;;;;13.70;48.21;98371.09;5092744;28;42463;-77
2023/04/11 00:24:39;;;;;;;3.93;3.07;;;;;;;13.51;48.77;98377.09;5076400;28;42747;-78
2023/04/11 00:27:07;;;;;;;3.00;2.70;;;;;;;13.25;50.12;98360.59;5092824;28;41543;-78
2023/04/11 00:29:35;;;;;;;3.20;2.90;;;;;;;13.30;50.33;98392.97;5076634;28;40012;-77
2023/04/11 00:32:03;;;;;;;4.37;3.10;;;;;;;13.16;51.62;98383.47;5092756;28;42667;-77
2023/04/11 00:34:31;;;;;;;3.40;3.10;;;;;;;13.12;53.92;98381.97;5076204;28;41773;-76
2023/04/11 00:37:00;;;;;;;4.00;3.60;;;;;;;13.03;54.83;98382.72;5075793;28;41266;-77
2023/04/11 00:39:29;;;;;;;4.03;3.57;;;;;;;12.94;54.73;98378.16;5076360;28;39815;-78
2023/04/11 00:42:06;;;;;;;4.17;2.97;;;;;;;12.83;58.07;98373.69;5074623;28;40547;-77
2023/04/11 00:44:35;;;;;;;4.43;2.90;;;;;;;12.69;58.60;98381.91;5076351;28;41798;-77
2023/04/11 00:47:05;;;;;;;3.13;2.83;;;;;;;12.58;60.70;98385.41;5092447;28;42399;-77
2023/04/11 00:49:33;;;;;;;4.00;3.27;;;;;;;12.44;61.87;98369.69;5076216;28;40862;-77
2023/04/11 00:52:02;;;;;;;6.27;2.93;;;;;;;12.44;63.61;98372.34;5092686;28;41893;-77
2023/04/11 00:54:30;;;;;;;2.73;2.53;;;;;;;12.42;65.04;98374.28;5075823;28;42470;-77
2023/04/11 00:56:59;;;;;;;3.77;3.20;;;;;;;12.43;65.71;98365.34;5075469;28;41073;-77
2023/04/11 00:59:30;;;;;;;3.50;2.60;;;;;;;12.44;66.47;98358.22;5092950;28;40074;-76
2023/04/11 01:02:00;;;;;;;3.93;3.23;;;;;;;12.43;66.41;98362.69;5090637;28;41836;-77
2023/04/11 01:04:28;;;;;;;3.20;2.40;;;;;;;12.40;68.07;98352.28;5075634;28;42533;-77
2023/04/11 01:07:02;;;;;;;4.40;2.63;;;;;;;12.47;68.78;98372.13;5092247;28;41390;-77
2023/04/11 01:09:32;;;;;;;3.40;2.50;;;;;;;12.39;69.99;98361.22;5089930;28;39967;-77
2023/04/11 01:12:01;;;;;;;2.67;2.17;;;;;;;12.44;72.11;98367.03;5091748;28;40755;-77
2023/04/11 01:14:31;;;;;;;3.90;2.73;;;;;;;12.43;73.48;98352.06;5091773;28;41511;-77
2023/04/11 01:17:00;;;;;;;2.50;2.30;;;;;;;12.34;72.77;98325.38;5090205;28;43268;-77
2023/04/11 01:19:29;;;;;;;2.93;2.43;;;;;;;12.41;74.15;98348.69;5092484;28;40921;-77
2023/04/11 01:22:00;;;;;;;2.50;2.20;;;;;;;12.41;73.44;98343.38;5074961;28;40792;-76
2023/04/11 01:24:29;;;;;;;2.47;2.20;;;;;;;12.41;73.68;98342.53;5089340;28;42841;-76
2023/04/11 01:26:57;;;;;;;3.30;2.07;;;;;;;12.39;73.85;98347.94;5091711;28;41211;-76
2023/04/11 01:29:25;;;;;;;3.27;2.00;;;;;;;12.36;74.35;98345.56;5092297;28;39899;-76
2023/04/11 01:31:53;;;;;;;2.90;2.60;;;;;;;12.31;75.33;98342.41;5074835;28;41858;-76
2023/04/11 01:34:22;;;;;;;3.50;2.77;;;;;;;12.27;76.26;98335.63;5074344;28;41876;-76
2023/04/11 01:36:50;;;;;;;2.43;2.23;;;;;;;12.27;75.16;98350.72;5074531;28;41379;-76
2023/04/11 01:39:18;;;;;;;2.60;2.33;;;;;;;12.28;76.14;98342.63;5075088;28;40023;-76
2023/04/11 01:41:49;;;;;;;2.50;2.27;;;;;;;12.25;75.45;98332.25;5074479;28;40979;-76
2023/04/11 01:44:18;;;;;;;2.90;2.50;;;;;;;12.24;76.09;98346.47;5074940;28;42299;-76
2023/04/11 01:46:46;;;;;;;2.37;2.07;;;;;;;12.25;75.15;98332.25;5074669;28;42574;-77
2023/04/11 01:49:15;;;;;;;1.97;1.77;;;;;;;12.26;75.25;98331.28;5091659;28;40800;-76
2023/04/11 01:51:43;;;;;;;2.10;1.90;;;;;;;12.27;74.33;98327.66;5091403;28;41899;-76
2023/04/11 01:54:11;;;;;;;3.07;2.60;;;;;;;12.30;76.03;98319.47;5091178;28;42684;-76
2023/04/11 01:56:39;;;;;;;2.60;2.03;;;;;;;12.30;75.11;98322.13;5074411;28;41256;-76
2023/04/11 01:59:08;;;;;;;2.30;2.10;;;;;;;12.31;76.41;98325.63;5091694;28;40904;-76
2023/04/11 02:01:36;;;;;;;2.60;2.40;;;;;;;12.31;76.75;98321.16;5090955;28;41945;-76
2023/04/11 02:04:04;;;;;;;2.57;2.37;;;;;;;12.33;76.73;98324.53;5074635;28;42940;-75
2023/04/11 02:06:33;;;;;;;2.40;2.20;;;;;;;12.37;76.67;98328.63;5091171;28;42254;-76
2023/04/11 02:09:00;;;;;;;1.97;1.77;;;;;;;12.37;75.89;98312.69;5074637;28;39750;-76
2023/04/11 02:11:28;;;;;;;2.00;1.83;;;;;;;12.44;77.04;98321.88;5073983;28;41116;-76
2023/04/11 02:13:56;;;;;;;4.10;2.67;;;;;;;12.44;76.99;98336.97;5091512;28;43558;-76
2023/04/11 02:16:28;;;;;;;3.33;2.37;;;;;;;12.44;78.15;98340.47;5090747;28;42356;-76
2023/04/11 02:18:57;;;;;;;2.40;1.90;;;;;;;12.41;78.61;98345.19;5088193;28;41112;-76
2023/04/11 02:21:25;;;;;;;4.03;2.10;;;;;;;12.43;78.48;98361.84;5090885;28;42688;-76
2023/04/11 02:23:53;;;;;;;2.60;2.40;;;;;;;12.43;79.46;98362.69;5091148;28;43540;-75
2023/04/11 02:26:21;;;;;;;3.27;2.47;;;;;;;12.40;80.18;98367.38;5090798;28;42233;-77
2023/04/11 02:28:49;;;;;;;4.37;2.40;;;;;;;12.40;80.36;98368.22;5074316;28;40960;-76
2023/04/11 02:31:17;;;;;;;3.50;2.33;;;;;;;12.33;80.76;98368.84;5090903;28;42739;-76
2023/04/11 02:33:46;;;;;;;2.20;2.00;;;;;;;12.28;81.87;98377.13;5073840;28;41476;-76
2023/04/11 02:36:14;;;;;;;3.57;2.50;;;;;;;12.28;82.74;98370.97;5090627;28;42262;-76
2023/04/11 02:38:41;;;;;;;4.43;2.23;;;;;;;12.26;82.23;98359.63;5074342;28;40034;-77
2023/04/11 02:41:09;;;;;;;4.73;2.43;;;;;;;12.25;81.98;98364.09;5090911;28;41893;-76
2023/04/11 02:43:36;;;;;;;3.20;2.20;;;;;;;12.24;82.02;98357.09;5090817;28;42549;-77
2023/04/11 02:46:05;;;;;;;2.60;2.40;;;;;;;12.22;82.79;98359.91;5073706;28;40902;-76
2023/04/11 02:48:34;;;;;;;3.37;2.30;;;;;;;12.11;83.00;98349.25;5090644;28;39966;-76
2023/04/11 02:51:04;;;;;;;4.10;2.60;;;;;;;12.15;83.38;98366.63;5073235;28;40859;-76
2023/04/11 02:53:31;;;;;;;2.50;2.30;;;;;;;12.14;83.54;98358.78;5073565;28;42791;-76
2023/04/11 02:55:59;;;;;;;2.40;2.20;;;;;;;12.14;82.93;98362.28;5073497;28;41350;-76
2023/04/11 02:58:27;;;;;;;2.77;2.30;;;;;;;12.10;82.98;98352.03;5073595;28;39102;-75
2023/04/11 03:00:57;;;;;;;3.20;2.27;;;;;;;12.01;82.59;98340.28;5073349;28;40831;-76
2023/04/11 03:03:26;;;;;;;1.90;1.77;;;;;;;12.09;83.33;98353.84;5090473;28;42959;-76
2023/04/11 03:05:55;;;;;;;3.67;2.10;;;;;;;12.07;83.94;98350.44;5091971;28;43251;-76
2023/04/11 03:08:26;;;;;;;3.27;2.10;;;;;;;12.03;83.99;98362.25;5091089;28;39842;-76
2023/04/11 03:10:54;;;;;;;1.60;1.50;;;;;;;12.04;84.00;98360.44;5077306;28;41700;-76
2023/04/11 03:13:25;;;;;;;2.00;1.50;;;;;;;11.96;83.74;98344.28;5093829;28;43674;-75
2023/04/11 03:15:52;;;;;;;2.07;1.80;;;;;;;12.00;84.05;98348.34;5093442;28;42105;-76
2023/04/11 03:18:21;;;;;;;2.33;1.63;;;;;;;12.03;83.68;98359.59;5093691;28;42380;-76
2023/04/11 03:20:49;;;;;;;1.73;1.40;;;;;;;11.86;85.07;98337.03;5076994;28;41839;-75
2023/04/11 03:23:17;;;;;;;2.73;1.80;;;;;;;11.91;84.61;98355.22;5076593;28;41468;-75
2023/04/11 03:25:47;;;;;;;1.33;1.23;;;;;;;11.83;84.01;98369.06;5094002;28;42287;-76
2023/04/11 03:28:16;;;;;;;1.63;1.20;;;;;;;11.67;82.78;98375.59;5076720;28;39185;-76
2023/04/11 03:30:43;;;;;;;1.57;0.90;;;;;;;11.61;81.16;98395.50;5093749;28;42637;-75
2023/04/11 03:33:13;;;;;;;1.37;0.70;;;;;;;11.41;80.61;98407.53;5093434;28;42139;-75
2023/04/11 03:35:41;;;;;;;1.63;1.10;;;;;;;11.35;80.06;98399.19;5093765;28;42307;-75
2023/04/11 03:38:09;;;;;;;2.10;1.00;;;;;;;11.25;80.88;98392.88;5093444;28;39753;-76
2023/04/11 03:40:37;;;;;;;1.17;0.80;;;;;;;11.27;80.27;98401.53;5093409;28;41775;-75
2023/04/11 03:43:12;;;;;;;0.87;0.70;;;;;;;11.21;80.34;98409.97;5076429;28;42803;-75
2023/04/11 03:45:40;;;;;;;1.07;0.80;;;;;;;11.09;80.76;98406.38;5076831;28;42082;-75
2023/04/11 03:48:16;;;;;;;0.63;0.60;;;;;;;10.94;79.54;98416.28;5076526;28;40304;-75
2023/04/11 03:50:49;;;;;;;2.10;0.70;;;;;;;10.86;79.53;98429.22;5076826;28;41034;-75
2023/04/11 03:53:22;;;;;;;0.70;0.60;;;;;;;10.79;79.18;98427.94;5076336;28;41446;-76
2023/04/11 03:55:53;;;;;;;1.13;0.60;;;;;;;10.69;80.35;98429.53;5090430;28;43367;-75
2023/04/11 03:58:25;;;;;;;0.73;0.60;;;;;;;10.63;79.56;98443.22;5090188;28;40941;-76
2023/04/11 04:00:53;;;;;;;0.93;0.70;;;;;;;10.55;79.75;98442.88;5076520;28;41787;-76
2023/04/11 04:03:21;;;;;;;1.17;0.77;;;;;;;10.48;79.84;98429.25;5093177;28;43602;-76
2023/04/11 04:05:49;;;;;;;1.73;0.70;;;;;;;10.38;80.05;98426.38;5075838;28;42410;-76
2023/04/11 04:08:17;;;;;;;1.23;0.60;;;;;;;10.34;80.64;98438.13;5093175;28;41655;-76
2023/04/11 04:10:48;;;;;;;1.97;0.60;;;;;;;10.25;80.80;98430.81;5076571;28;40764;-75
2023/04/11 04:13:16;;;;;;;1.07;0.80;;;;;;;10.20;81.10;98424.13;5093032;28;43847;-75
2023/04/11 04:16:03;;;;;;;1.53;0.80;;;;;;;10.16;80.78;98422.59;5092038;28;43107;-75
2023/04/11 04:18:31;;;;;;;2.00;0.50;;;;;;;10.08;81.41;98431.06;5076001;28;39232;-75
2023/04/11 04:20:58;;;;;;;1.10;0.57;;;;;;;10.09;81.10;98433.59;5076025;28;40600;-75
2023/04/11 04:23:26;;;;;;;1.27;0.80;;;;;;;10.09;81.06;98449.47;5076017;28;42655;-74
2023/04/11 04:26:12;;;;;;;1.17;0.80;;;;;;;10.07;80.72;98445.25;5092983;28;41061;-74
2023/04/11 04:28:45;;;;;;;2.17;0.63;;;;;;;10.01;80.66;98445.66;5089882;28;40058;-75
2023/04/11 04:31:21;;;;;;;1.30;0.60;;;;;;;9.98;81.17;98445.88;5089902;28;41790;-75
2023/04/11 04:33:50;;;;;;;0.90;0.67;;;;;;;9.96;80.55;98453.03;5075500;28;43143;-76
2023/04/11 04:36:23;;;;;;;4.43;1.10;;;;;;;9.94;80.93;98449.66;5092568;28;42262;-76
2023/04/11 04:38:53;;;;;;;1.73;0.60;;;;;;;9.88;81.48;98452.72;5092891;28;39823;-75
2023/04/11 04:41:23;;;;;;;1.90;0.60;;;;;;;9.87;81.51;98451.03;5090084;28;42639;-75
2023/04/11 04:43:59;;;;;;;2.50;0.60;;;;;;;9.89;81.52;98454.41;5075933;28;41473;-75
2023/04/11 04:46:38;;;;;;;1.53;0.70;;;;;;;9.89;81.24;98452.59;5090295;28;42445;-75
2023/04/11 04:49:08;;;;;;;2.80;0.70;;;;;;;9.89;81.70;98457.06;5092503;28;40147;-75
2023/04/11 04:51:39;;;;;;;0.67;0.60;;;;;;;9.91;81.48;98460.41;5075192;28;40614;-75
2023/04/11 04:54:07;;;;;;;1.13;0.93;;;;;;;9.88;82.05;98461.50;5075320;28;42461;-75
2023/04/11 04:56:34;;;;;;;1.67;0.80;;;;;;;9.90;82.48;98469.31;5092070;28;42190;-75
2023/04/11 04:59:02;;;;;;;3.10;1.00;;;;;;;9.87;82.73;98472.19;5092515;28;40906;-75
2023/04/11 05:01:31;;;;;;;3.33;0.90;;;;;;;9.86;82.56;98468.69;5092035;28;42359;-75
2023/04/11 05:04:01;;;;;;;1.77;0.87;;;;;;;9.79;82.74;98453.31;5075293;28;42765;-75
2023/04/11 05:06:44;;;;;;;0.80;0.63;;;;;;;9.89;82.72;98468.47;5075132;28;41212;-75
2023/04/11 05:09:12;;;;;;;1.67;0.73;;;;;;;9.89;82.80;98467.63;5092015;28;39747;-75
2023/04/11 05:11:40;;;;;;;1.67;0.80;;;;;;;9.84;82.83;98462.63;5091989;28;42016;-75
2023/04/11 05:14:09;;;;;;;1.20;0.70;;;;;;;9.84;82.38;98461.78;5091596;28;43652;-75
2023/04/11 05:16:39;;;;;;;4.83;1.43;;;;;;;9.85;82.29;98466.13;5075152;28;41369;-75
2023/04/11 05:19:09;;;;;;;1.33;0.60;;;;;;;9.70;82.26;98442.38;5091862;28;40356;-75
2023/04/11 05:21:41;;;;;;;1.67;0.80;;;;;;;9.83;81.77;98463.59;5089518;28;42498;-75
2023/04/11 05:24:09;;;;;;;1.17;0.77;;;;;;;9.81;81.56;98460.19;5091761;28;43025;-75
2023/04/11 05:26:38;;;;;;;1.40;0.70;;;;;;;9.83;81.60;98462.75;5091632;28;43192;-75
2023/04/11 05:29:06;;;;;;;1.87;0.70;;;;;;;9.85;81.13;98450.28;5074181;28;38916;-75
2023/04/11 05:31:34;;;;;;;1.20;0.77;;;;;;;9.89;81.08;98454.41;5074578;28;40265;-75
2023/04/11 05:34:02;;;;;;;1.67;0.90;;;;;;;9.91;81.35;98439.25;5091386;28;44045;-75
2023/04/11 05:36:32;;;;;;;0.93;0.50;;;;;;;9.92;80.84;98459.47;5074547;28;42281;-75
2023/04/11 05:39:02;;;;;;;0.83;0.53;;;;;;;9.95;80.30;98446.91;5074961;28;39291;-74
2023/04/11 05:41:30;;;;;;;1.63;0.73;;;;;;;9.99;80.23;98447.56;5074226;28;41323;-75
2023/04/11 05:43:58;;;;;;;1.07;0.70;;;;;;;10.01;79.81;98456.25;5074616;28;41602;-74
2023/04/11 05:46:27;;;;;;;1.80;0.90;;;;;;;10.10;79.83;98458.28;5091203;28;43283;-74
2023/04/11 05:48:56;;;;;;;1.33;0.80;;;;;;;10.15;79.71;98460.59;5091306;28;40735;-75
2023/04/11 05:51:25;;;;;;;1.63;0.93;;;;;;;10.18;79.82;98473.63;5074122;28;41065;-75
2023/04/11 05:53:54;;;;;;;2.33;0.70;;;;;;;10.19;79.67;98476.19;5091193;28;43659;-75
2023/04/11 05:56:22;;;;;;;0.67;0.63;;;;;;;10.15;79.62;98468.53;5091073;28;40804;-75
2023/04/11 05:58:50;;;;;;;0.87;0.60;;;;;;;10.21;79.27;98478.75;5074354;28;38924;-75
2023/04/11 06:01:18;;;;;;;1.33;0.77;;;;;;;10.25;79.04;98464.38;5091108;28;40631;-75
2023/04/11 06:03:46;;;;;;;1.70;0.80;;;;;;;10.32;78.56;98455.91;5090963;28;41750;-74
2023/04/11 06:06:14;;;;;;;2.23;0.73;;;;;;;10.38;78.46;98458.16;5073795;28;40763;-75
2023/04/11 06:08:42;;;;;;;1.33;0.57;;;;;;;10.55;78.42;98472.00;5091178;28;40024;-75
2023/04/11 06:11:11;;;;;;;0.63;0.60;;;;;;;10.69;78.08;98471.91;5090645;28;42747;-75
2023/04/11 06:13:39;;;;;;;1.57;0.63;;;;;;;10.77;77.47;98473.06;5073940;28;41886;-75
2023/04/11 06:16:08;;;;;;;2.00;0.77;;;;;;;10.78;76.66;98474.78;5090560;28;43064;-75
2023/04/11 06:18:35;;;;;;;0.97;0.67;;;;;;;10.83;76.55;98476.25;5090765;28;40025;-75
2023/04/11 06:21:03;;;;;;;0.90;0.60;;;;;;;10.90;76.15;98483.66;5090819;28;42682;-75
2023/04/11 06:23:31;;;;;;;0.77;0.70;;;;;;;10.99;76.27;98488.34;5092095;28;43728;-75
2023/04/11 06:25:59;;;;;;;0.90;0.70;;;;;;;11.08;76.05;98492.97;5073445;28;41303;-75
2023/04/11 06:28:28;;;;;;;1.53;0.73;;;;;;;11.24;75.55;98481.31;5073902;28;38740;-75
2023/04/11 06:30:56;;;;;;;1.03;0.77;;;;;;;11.39;74.04;98490.78;5090511;28;42051;-75
2023/04/11 06:33:24;;;;;;;1.93;0.70;;;;;;;11.54;73.65;98500.31;5073621;28;41769;-75
2023/04/11 06:35:52;;;;;;;1.30;0.60;;;;;;;11.63;73.16;98502.28;5090577;28;42199;-75
2023/04/11 06:38:19;;;;;;;0.90;0.63;;;;;;;11.68;71.76;98510.78;5090397;28;40884;-75
2023/04/11 06:40:47;;;;;;;2.00;0.67;;;;;;;11.78;70.41;98514.47;5073850;28;41724;-75
2023/04/11 06:43:15;;;;;;;1.93;0.70;;;;;;;11.86;69.65;98516.59;5090399;28;42800;-75
2023/04/11 06:45:46;;;;;;;2.63;0.90;;;;;;;12.04;69.43;98525.00;5091894;28;42333;-75
2023/04/11 06:48:16;;;;;;;2.37;0.90;;;;;;;12.11;68.26;98531.56;5090425;28;40042;-75
2023/04/11 06:50:45;;;;;;;3.97;0.90;;;;;;;12.20;67.70;98531.72;5091772;28;43266;-75
2023/04/11 06:53:13;;;;;;;2.17;0.77;;;;;;;12.41;67.12;98539.88;5091362;28;43731;-75
2023/04/11 06:55:41;;;;;;;2.90;0.73;;;;;;;12.59;66.80;98537.66;5091571;28;42607;-75
2023/04/11 06:58:08;;;;;;;3.67;1.20;;;;;;;12.75;66.24;98547.94;5091441;28;40020;-75
2023/04/11 07:00:36;;;;;;;1.30;0.80;;;;;;;12.95;66.30;98544.63;5090030;28;41793;-75
2023/04/11 07:03:06;;;;;;;4.73;0.93;;;;;;;13.06;63.76;98557.94;5090052;28;42788;-76
2023/04/11 07:05:35;;;;;;;3.90;1.17;;;;;;;13.04;63.97;98537.75;5073679;28;42241;-75
2023/04/11 07:08:03;;;;;;;1.33;0.90;;;;;;;13.37;64.02;98566.19;5090001;28;39377;-75
2023/04/11 07:10:31;;;;;;;2.57;0.93;;;;;;;13.48;63.10;98552.91;5091564;28;41709;-75
2023/04/11 07:12:58;;;;;;;2.33;1.10;;;;;;;13.67;62.76;98563.78;5090149;28;42708;-75
2023/04/11 07:15:26;;;;;;;5.87;1.20;;;;;;;13.64;61.70;98574.66;5072733;28;41281;-75
2023/04/11 07:17:54;;;;;;;1.67;1.00;;;;;;;13.54;62.38;98568.38;5089689;28;40377;-75
2023/04/11 07:20:24;;;;;;;2.40;0.90;;;;;;;13.51;62.40;98558.81;5090160;28;41801;-76
2023/04/11 07:22:51;;;;;;;3.37;1.03;;;;;;;13.41;62.01;98567.66;5073009;28;41415;-76
2023/04/11 07:25:21;;;;;;;2.70;1.10;;;;;;;13.36;63.18;98576.00;5091035;28;42246;-76
2023/04/11 07:27:50;;;;;;;6.53;1.57;;;;;;;13.58;62.58;98581.34;5089902;28;41885;-76
2023/04/11 07:30:18;;;;;;;4.80;1.10;;;;;;;13.79;61.53;98600.06;5073010;28;41912;-76
2023/04/11 07:32:45;;;;;;;4.03;1.17;;;;;;;14.09;60.96;98595.91;5091025;28;42782;-76
2023/04/11 07:35:13;;;;;;;2.90;1.10;;;;;;;14.41;61.40;98596.81;5089443;28;42259;-76
2023/04/11 07:37:44;;;;;;;4.83;1.30;;;;;;;14.73;59.25;98610.97;5073103;28;40032;-76
2023/04/11 07:40:13;;;;;;;3.00;1.10;;;;;;;15.13;57.28;98626.31;5073021;28;41930;-76
2023/04/11 07:42:40;;;;;;;3.63;1.00;;;;;;;15.54;54.98;98625.44;5073049;28;42758;-76
2023/04/11 07:45:09;;;;;;;3.00;1.20;;;;;;;16.05;54.81;98621.91;5072825;28;42244;-76
2023/04/11 07:47:37;;;;;;;3.17;1.23;;;;;;;16.73;53.06;98631.75;5091080;28;40006;-76
2023/04/11 07:50:06;;;;;;;5.33;1.60;;;;;;;17.31;51.28;98637.03;5089359;28;40748;-76
2023/04/11 07:52:33;;;;;;;3.80;1.57;;;;;;;17.82;50.82;98641.19;5093134;28;42730;-76
2023/04/11 07:55:03;;;;;;;5.37;1.40;;;;;;;18.44;50.65;98645.81;5093202;28;42054;-77
2023/04/11 07:57:31;;;;;;;3.47;1.30;;;;;;;19.41;48.06;98653.97;5076513;28;38985;-76
2023/04/11 08:00:00;;;;;;;3.77;1.30;;;;;;;20.01;44.58;98665.66;5076287;28;40454;-76
2023/04/11 08:02:27;;;;;;;3.93;1.30;;;;;;;20.62;44.90;98666.44;5075918;28;42495;-76
2023/04/11 08:04:55;;;;;;;4.70;1.20;;;;;;;21.40;41.79;98685.72;5076187;28;41310;-76
2023/04/11 08:07:23;;;;;;;3.90;1.17;;;;;;;21.52;42.06;98681.69;5093085;28;40941;-76
2023/04/11 08:09:51;;;;;;;3.40;1.13;;;;;;;21.27;42.13;98680.00;5093216;28;41865;-76
2023/04/11 08:12:20;;;;;;;5.10;1.50;;;;;;;21.69;41.20;98682.53;5092584;28;41407;-77
2023/04/11 08:14:48;;;;;;;3.93;1.23;;;;;;;22.52;39.16;98701.88;5093302;28;43264;-76
2023/04/11 08:17:16;;;;;;;3.70;1.10;;;;;;;22.78;37.17;98707.00;5075654;28;40464;-76
2023/04/11 08:19:43;;;;;;;3.60;1.43;;;;;;;23.10;37.77;98706.81;5075979;28;40797;-77
2023/04/11 08:22:11;;;;;;;2.70;1.30;;;;;;;23.87;36.50;98699.44;5093912;28;42717;-76
2023/04/11 08:24:39;;;;;;;2.00;1.00;;;;;;;25.07;33.23;98732.59;5076093;28;41531;-76
2023/04/11 08:27:07;;;;;;;4.93;1.37;;;;;;;26.51;31.41;98734.91;5093954;28;40942;-77
2023/04/11 08:29:36;;;;;;;2.00;1.40;;;;;;;27.23;28.74;98756.16;5092770;28;42690;-74
2023/04/11 08:32:05;;;;;;;3.30;1.60;;;;;;;28.66;26.64;98774.69;5092340;28;42671;-75
2023/04/11 08:34:33;;;;;;;3.33;1.40;;;;;;;28.72;26.74;98773.81;5092668;28;42966;-75
2023/04/11 08:37:01;;;;;;;4.03;1.50;;;;;;;29.73;26.85;98754.91;5093781;28;40104;-75
2023/04/11 08:39:28;;;;;;;3.73;1.37;;;;;;;30.16;25.52;98765.94;5093580;28;41805;-75
2023/04/11 08:41:56;;;;;;;3.10;1.50;;;;;;;29.59;25.79;98765.06;5092317;28;41878;-75
2023/04/11 08:44:24;;;;;;;2.27;1.23;;;;;;;28.41;25.95;98773.69;5092276;28;41188;-75
2023/04/11 08:46:53;;;;;;;2.73;1.23;;;;;;;27.66;27.19;98769.47;5093548;28;39947;-77
2023/04/11 08:49:21;;;;;;;3.37;1.20;;;;;;;27.81;26.74;98770.13;5093567;28;41604;-76
2023/04/11 08:51:53;;;;;;;5.23;1.20;;;;;;;25.89;27.76;98724.03;5092200;28;41455;-75
2023/04/11 08:54:21;;;;;;;2.43;1.10;;;;;;;25.55;28.27;98755.41;5092216;28;41258;-75
2023/04/11 08:56:48;;;;;;;2.77;1.30;;;;;;;26.98;27.71;98753.13;5092198;28;40650;-75
2023/04/11 08:59:16;;;;;;;3.33;1.60;;;;;;;29.39;25.36;98752.63;5093499;28;41589;-75
2023/04/11 09:01:44;;;;;;;3.65;1.50;;;;;;;30.98;23.38;98770.13;5091945;28;41699;-76
2023/04/11 09:04:13;;;;;;;2.15;1.30;;;;;;;31.07;23.02;98776.13;5090587;28;42403;-75
2023/04/11 09:06:57;;;;;;;5.95;1.45;;;;;;;30.30;22.53;98772.94;5075085;28;41191;-76
2023/04/11 09:09:30;;;;;;;2.65;1.23;;;;;;;30.65;22.28;98792.41;5075368;28;41781;-75
2023/04/11 09:11:58;;;;;;;3.05;1.20;;;;;;;30.82;22.71;98780.84;5075171;28;43075;-76
2023/04/11 09:14:26;;;;;;;3.92;1.40;;;;;;;31.28;22.02;98775.66;5091204;28;41383;-75
2023/04/11 09:16:56;;;;;;;2.42;1.05;;;;;;;30.99;22.28;98769.06;5089859;28;40986;-76
2023/04/11 09:19:26;;;;;;;2.53;1.30;;;;;;;29.19;23.62;98763.59;5091550;28;40565;-76
2023/04/11 09:21:55;;;;;;;4.23;1.20;;;;;;;27.26;24.86;98761.19;5074670;28;42047;-75
2023/04/11 09:24:25;;;;;;;4.37;1.47;;;;;;;26.25;26.22;98740.16;5092938;28;42192;-76
2023/04/11 09:27:07;;;;;;;4.70;1.07;;;;;;;26.32;25.76;98747.34;5075688;28;20222;-75
2023/04/11 09:29:37;;;;;;;4.60;1.40;;;;;;;25.57;25.81;98752.53;5074866;28;40818;-75
2023/04/11 09:32:05;;;;;;;2.43;1.10;;;;;;;26.47;25.45;98749.94;5091212;28;42295;-75
2023/04/11 09:34:37;;;;;;;2.20;1.00;;;;;;;26.89;24.70;98753.50;5092719;28;42367;-75
2023/04/11 09:37:05;;;;;;;1.57;0.90;;;;;;;26.31;24.88;98753.81;5091525;28;39022;-75
2023/04/11 09:39:33;;;;;;;1.93;1.10;;;;;;;25.55;26.02;98743.72;5091585;28;40639;-75
2023/04/11 09:42:02;;;;;;;2.13;0.97;;;;;;;25.31;26.38;98737.66;5074243;28;41746;-75
2023/04/11 09:44:38;;;;;;;4.07;1.23;;;;;;;24.81;26.91;98740.38;5091405;28;41259;-75
2023/04/11 09:47:06;;;;;;;3.43;1.10;;;;;;;23.88;29.51;98728.16;5091374;28;39685;-75
2023/04/11 09:49:35;;;;;;;2.90;1.13;;;;;;;23.09;29.59;98732.16;5092700;28;42609;-76
2023/04/11 09:52:05;;;;;;;3.17;1.27;;;;;;;22.29;31.04;98727.94;5091213;28;43019;-76
2023/04/11 09:54:33;;;;;;;4.03;1.23;;;;;;;21.10;32.19;98654.91;5074061;28;42196;-75
2023/04/11 09:57:01;;;;;;;4.90;1.13;;;;;;;21.04;32.67;98707.56;5074529;28;40632;-75
2023/04/11 09:59:30;;;;;;;2.30;1.03;;;;;;;21.28;32.41;98705.94;5091629;28;42681;-75
2023/04/11 10:01:58;;;;;;;4.30;1.03;;;;;;;21.12;32.83;98661.81;5074114;28;41715;-75
2023/04/11 10:04:27;;;;;;;3.57;1.30;;;;;;;21.15;32.53;98712.63;5091047;28;42250;-75
2023/04/11 10:07:06;;;;;;;3.37;0.90;;;;;;;22.52;32.09;98712.66;5074208;28;38789;-76
2023/04/11 10:09:38;;;;;;;1.77;0.90;;;;;;;23.84;29.63;98726.03;5089542;28;41695;-76
2023/04/11 10:12:07;;;;;;;3.13;0.93;;;;;;;23.82;28.81;98712.69;5073875;28;41596;-76
2023/04/11 10:14:47;;;;;;;2.23;0.97;;;;;;;23.54;30.16;98703.47;5090306;28;42001;-76
2023/04/11 10:17:16;;;;;;;2.63;1.10;;;;;;;24.50;29.21;98727.88;5073979;28;39921;-76
2023/04/11 10:19:45;;;;;;;3.13;1.00;;;;;;;26.11;26.68;98742.78;5090648;28;41185;-76
2023/04/11 10:22:55;;;;;;;2.70;1.17;;;;;;;28.35;23.77;98763.63;5091941;28;42906;-76
2023/04/11 10:25:24;;;;;;;2.23;1.10;;;;;;;30.65;22.26;98775.16;5074010;28;41130;-76
2023/04/11 10:27:53;;;;;;;4.03;1.30;;;;;;;32.28;20.61;98778.59;5090871;28;38901;-76
2023/04/11 10:31:02;;;;;;;4.20;1.80;;;;;;;33.73;18.76;98797.69;5073879;28;41445;-76
2023/04/11 10:33:30;;;;;;;2.83;1.38;;;;;;;32.93;18.68;98805.06;5091950;28;43534;-75
2023/04/11 10:36:00;;;;;;;4.10;1.37;;;;;;;30.16;20.79;98809.66;5090533;28;42226;-76
2023/04/11 10:38:50;;;;;;;3.77;0.80;;;;;;;26.88;24.80;98800.72;5073801;28;39791;-77
2023/04/11 10:41:26;;;;;;;2.83;1.10;;;;;;;24.21;28.68;98788.25;5089151;28;42063;-77
2023/04/11 10:44:26;;;;;;;1.47;0.80;;;;;;;22.26;31.24;98756.09;5087812;28;43392;-75
2023/04/11 10:46:55;;;;;;;1.53;0.53;;;;;;;20.83;34.41;98712.56;5073937;28;41639;-77
2023/04/11 10:49:35;;;;;;;1.17;0.60;;;;;;;21.19;34.33;98732.03;5073760;28;39740;-75
2023/04/11 10:52:20;;;;;;;1.13;0.60;;;;;;;23.02;32.10;98733.88;5090291;28;40899;-75
2023/04/11 10:54:51;;;;;;;1.60;0.63;;;;;;;25.23;29.79;98751.31;5091611;28;42585;-75
2023/04/11 10:57:19;;;;;;;1.60;0.73;;;;;;;27.22;27.93;98740.88;5090263;28;42485;-76
2023/04/11 10:59:57;;;;;;;1.20;0.80;;;;;;;28.76;25.77;98766.91;5073490;28;38927;-78
2023/04/11 11:02:38;;;;;;;1.83;0.70;;;;;;;29.89;24.83;98770.75;5090389;28;40452;-76
2023/04/11 11:05:20;;;;;;;2.33;0.80;;;;;;;30.42;23.97;98780.38;5090317;28;43344;-76
2023/04/11 11:07:50;;;;;;;3.03;0.97;;;;;;;31.28;23.23;98783.06;5090978;28;42956;-78
2023/04/11 11:10:50;;;;;;;2.13;0.90;;;;;;;33.08;21.93;98792.53;5073512;28;39942;-77
2023/04/11 11:13:18;;;;;;;2.20;1.20;;;;;;;34.43;20.59;98797.28;5091193;28;41765;-76
2023/04/11 11:15:50;;;;;;;2.47;1.05;;;;;;;35.20;19.39;98808.28;5090741;28;42735;-77
2023/04/11 11:18:18;;;;;;;1.73;1.00;;;;;;;34.51;19.66;98807.84;5090212;28;41404;-77
2023/04/11 11:20:46;;;;;;;1.92;1.13;;;;;;;34.37;19.39;98831.25;5090440;28;39766;-77
2023/04/11 11:23:14;;;;;;;1.47;0.90;;;;;;;32.12;22.50;98801.22;5091392;28;41806;-77
2023/04/11 11:25:52;;;;;;;2.77;0.90;;;;;;;30.38;25.62;98784.66;5090373;28;43558;-77
2023/04/11 11:28:20;;;;;;;1.87;0.70;;;;;;;29.71;25.14;98786.22;5095076;28;42303;-77
2023/04/11 11:30:51;;;;;;;2.03;0.90;;;;;;;28.50;26.75;98775.13;5093750;28;39816;-76
2023/04/11 11:33:21;;;;;;;2.33;0.80;;;;;;;27.34;27.46;98766.44;5094800;28;41636;-77
2023/04/11 11:35:55;;;;;;;3.17;0.80;;;;;;;26.02;27.96;98762.97;5095143;28;43748;-77
2023/04/11 11:38:26;;;;;;;1.73;0.80;;;;;;;26.59;29.47;98714.88;5090559;28;42920;-76
2023/04/11 11:40:57;;;;;;;1.83;0.63;;;;;;;28.06;27.64;98752.13;5094173;28;40131;-76
2023/04/11 11:43:26;;;;;;;1.87;0.77;;;;;;;29.13;26.09;98750.84;5076828;28;40642;-77
2023/04/11 11:46:08;;;;;;;2.43;1.23;;;;;;;30.60;25.56;98751.22;5093231;28;41941;-77
2023/04/11 11:48:36;;;;;;;1.60;0.70;;;;;;;32.19;23.75;98774.56;5091447;28;42083;-77